Time;durP1;ratioP1;P1;durP2;ratioP2;P2;SDS_P1;SDS_P2;PMS_P1;PMS_P2;Temp;Humidity;BMP_temperature;BMP_pressure;BME280_temperature;BME280_humidity;BME280_pressure;Samples;Min_cycle;Max_cycle;Signal;HPM_P1;HPM_P2
2023/06/26 00:00:20;;;;;;;;;24.80;22.40;;;;;20.20;74.08;99235.09;4931882;29;8879;-79
2023/06/26 00:03:13;;;;;;;;;27.80;23.40;;;;;20.21;74.11;99237.66;4913536;29;8863;-79
2023/06/26 00:05:42;;;;;;;;;24.00;23.80;;;;;20.26;74.02;99232.06;4914760;29;8864;-78
2023/06/26 00:08:13;;;;;;;;;27.00;25.80;;;;;20.26;73.76;99232.91;4914417;29;9639;-80
2023/06/26 00:10:41;;;;;;;;;23.60;23.20;;;;;20.25;73.90;99230.34;4914869;29;8873;-79
2023/06/26 00:13:12;;;;;;;;;20.80;20.00;;;;;20.25;73.66;99230.34;4896842;29;8883;-80
2023/06/26 00:15:42;;;;;;;;;26.80;23.40;;;;;20.27;73.78;99236.44;4914779;29;8876;-78
2023/06/26 00:18:12;;;;;;;;;22.40;22.20;;;;;20.28;73.62;99231.00;4914397;29;8950;-79
2023/06/26 00:20:41;;;;;;;;;20.20;20.20;;;;;20.32;73.35;99222.78;4913821;29;8868;-79
2023/06/26 00:23:10;;;;;;;;;23.00;22.60;;;;;20.28;73.14;99227.47;4914503;29;8856;-79
2023/06/26 00:25:38;;;;;;;;;21.60;19.80;;;;;20.25;72.79;99215.16;4897362;29;8917;-79
2023/06/26 00:28:07;;;;;;;;;27.20;24.80;;;;;20.30;72.88;99230.91;4936699;29;8864;-80
2023/06/26 00:30:39;;;;;;;;;25.00;23.00;;;;;20.32;72.96;99228.97;4917671;29;8883;-78
2023/06/26 00:33:10;;;;;;;;;21.20;20.60;;;;;20.33;72.39;99233.38;4896882;29;8895;-79
2023/06/26 00:35:38;;;;;;;;;23.00;21.80;;;;;20.33;72.36;99222.69;4913296;29;8895;-78
2023/06/26 00:38:07;;;;;;;;;26.60;23.20;;;;;20.24;72.23;99236.66;4928032;29;8851;-80
2023/06/26 00:40:38;;;;;;;;;22.20;22.20;;;;;20.26;72.58;99229.41;4914324;29;8887;-79
2023/06/26 00:43:08;;;;;;;;;25.80;22.80;;;;;20.25;72.27;99225.00;4914282;29;8911;-78
2023/06/26 00:45:36;;;;;;;;;20.60;17.40;;;;;20.26;72.57;99232.91;4914311;29;8993;-78
2023/06/26 00:48:13;;;;;;;;;26.80;23.60;;;;;20.27;72.35;99237.31;4913297;29;9928;-78
2023/06/26 00:50:43;;;;;;;;;23.00;23.00;;;;;20.21;71.96;99228.81;4899317;29;8871;-81
2023/06/26 00:53:12;;;;;;;;;22.20;21.40;;;;;20.17;72.13;99230.81;4895996;29;8875;-79
2023/06/26 00:55:41;;;;;;;;;21.20;19.80;;;;;20.19;72.12;99236.91;4928745;29;8908;-80
2023/06/26 00:58:11;;;;;;;;;24.80;22.00;;;;;20.15;71.52;99231.88;4928492;29;8867;-80
2023/06/26 01:00:40;;;;;;;;;23.40;22.60;;;;;20.05;71.16;99227.16;4925123;29;8874;-79
2023/06/26 01:03:09;;;;;;;;;25.40;25.40;;;;;20.03;71.50;99234.41;4909533;29;8854;-79
2023/06/26 01:05:40;;;;;;;;;21.00;21.00;;;;;20.02;70.71;99231.81;4909384;29;8885;-79
2023/06/26 01:08:10;;;;;;;;;21.60;21.00;;;;;20.01;71.99;99228.31;4894766;29;8850;-79
2023/06/26 01:10:39;;;;;;;;;24.80;21.80;;;;;20.04;71.55;99224.56;4892539;29;8997;-78
2023/06/26 01:13:09;;;;;;;;;25.40;22.20;;;;;20.04;71.66;99224.56;4913170;29;8871;-79
2023/06/26 01:15:38;;;;;;;;;20.80;20.20;;;;;20.00;71.29;99223.06;4911417;29;8910;-79
2023/06/26 01:18:08;;;;;;;;;21.40;19.60;;;;;19.99;71.19;99230.22;4912549;29;8902;-79
2023/06/26 01:20:41;;;;;;;;;22.20;21.40;;;;;20.01;71.09;99225.63;4913676;29;8879;-80
2023/06/26 01:23:18;;;;;;;;;22.80;21.40;;;;;20.07;71.07;99221.72;4896996;29;8855;-80
2023/06/26 01:26:01;;;;;;;;;23.40;23.40;;;;;19.98;70.38;99223.16;4913728;29;8929;-80
2023/06/26 01:28:35;;;;;;;;;22.00;20.00;;;;;19.89;71.16;99226.44;4908180;29;8897;-79
2023/06/26 01:31:06;;;;;;;;;18.00;15.40;;;;;19.62;70.29;99226.41;4909442;29;8877;-79
2023/06/26 01:33:36;;;;;;;;;18.40;17.80;;;;;19.69;70.93;99225.91;4909496;29;8895;-78
2023/06/26 01:36:06;;;;;;;;;24.60;21.80;;;;;19.71;70.91;99225.81;4912618;29;8898;-80
2023/06/26 01:38:37;;;;;;;;;23.80;20.60;;;;;19.75;70.62;99226.47;4914636;29;8873;-78
2023/06/26 01:41:07;;;;;;;;;20.00;20.00;;;;;19.74;71.01;99217.59;4915960;29;8935;-80
2023/06/26 01:43:53;;;;;;;;;23.00;22.80;;;;;19.83;71.16;99217.00;4916651;29;8894;-79
2023/06/26 01:46:25;;;;;;;;;22.20;22.20;;;;;19.76;71.12;99210.34;4928211;29;8859;-78
2023/06/26 01:49:02;;;;;;;;;26.00;24.80;;;;;19.75;70.92;99215.81;4924604;29;8866;-80
2023/06/26 01:51:36;;;;;;;;;19.80;19.00;;;;;19.75;70.39;99211.31;4894384;29;8885;-79
2023/06/26 01:54:11;;;;;;;;;28.40;28.40;;;;;19.81;70.19;99210.91;4893912;29;8890;-81
2023/06/26 01:56:41;;;;;;;;;19.60;19.60;;;;;19.67;69.99;99216.31;4892092;29;8870;-81
2023/06/26 01:59:14;;;;;;;;;20.00;20.00;;;;;19.63;69.29;99210.31;4908199;29;9612;-80
2023/06/26 02:01:43;;;;;;;;;20.40;19.20;;;;;19.63;69.79;99204.97;4907788;29;8891;-80
2023/06/26 02:04:12;;;;;;;;;21.20;21.20;;;;;19.63;70.08;99202.31;4911349;29;8886;-79
2023/06/26 02:06:41;;;;;;;;;23.60;20.20;;;;;19.61;70.00;99200.69;4927100;29;8898;-81
2023/06/26 02:09:10;;;;;;;;;21.60;20.00;;;;;19.64;70.18;99203.16;4911882;29;8955;-79
2023/06/26 02:11:39;;;;;;;;;24.60;24.60;;;;;19.63;69.76;99196.97;4930143;29;8883;-80
2023/06/26 02:14:09;;;;;;;;;17.20;16.60;;;;;19.59;69.97;99199.91;4935729;29;9743;-79
2023/06/26 02:16:39;;;;;;;;;20.00;20.00;;;;;19.60;69.97;99201.66;4927498;29;8879;-81
2023/06/26 02:19:08;;;;;;;;;25.80;25.60;;;;;19.56;69.67;99197.47;4927406;29;8893;-80
2023/06/26 02:21:38;;;;;;;;;27.00;22.20;;;;;19.53;69.11;99203.84;4927428;29;8899;-81
2023/06/26 02:24:07;;;;;;;;;19.40;18.80;;;;;19.54;69.25;99200.22;4910427;29;8892;-79
2023/06/26 02:26:36;;;;;;;;;24.40;23.40;;;;;19.55;69.46;99193.94;4910206;29;9003;-79
2023/06/26 02:29:05;;;;;;;;;21.00;21.00;;;;;19.51;69.63;99195.06;4895132;29;8884;-80
2023/06/26 02:31:33;;;;;;;;;17.20;16.20;;;;;19.48;69.68;99193.44;4911108;29;9008;-79
2023/06/26 02:34:04;;;;;;;;;21.40;21.40;;;;;19.47;69.37;99205.06;4913380;29;8884;-81
2023/06/26 02:36:34;;;;;;;;;23.20;23.20;;;;;19.48;69.44;99205.91;4910710;29;8991;-79
2023/06/26 02:39:06;;;;;;;;;22.60;22.40;;;;;19.46;69.26;99200.69;4912435;29;8911;-79
2023/06/26 02:41:35;;;;;;;;;24.60;23.20;;;;;19.41;69.36;99205.44;4882490;29;8859;-80
2023/06/26 02:44:06;;;;;;;;;22.80;22.20;;;;;19.36;69.27;99202.22;4914041;29;8986;-79
2023/06/26 02:46:34;;;;;;;;;25.60;23.80;;;;;19.36;68.99;99199.53;4910605;29;9020;-78
2023/06/26 02:49:05;;;;;;;;;24.20;22.40;;;;;19.37;69.52;99201.28;4909968;29;8875;-80
2023/06/26 02:51:34;;;;;;;;;22.80;21.00;;;;;19.33;69.28;99205.09;4909845;29;8883;-80
2023/06/26 02:54:11;;;;;;;;;25.00;23.60;;;;;19.34;69.17;99209.44;4890373;29;8896;-79
2023/06/26 02:56:41;;;;;;;;;23.20;21.40;;;;;19.22;69.58;99204.91;4872407;29;8932;-78
2023/06/26 02:59:17;;;;;;;;;25.00;23.20;;;;;19.25;69.42;99208.22;4872353;29;8926;-79
2023/06/26 03:01:46;;;;;;;;;23.00;22.40;;;;;19.28;69.70;99210.69;4865305;29;8905;-80
2023/06/26 03:04:17;;;;;;;;;24.40;23.80;;;;;19.30;69.65;99211.44;4856439;29;8866;-80
2023/06/26 03:06:47;;;;;;;;;23.80;23.20;;;;;19.28;69.61;99210.69;4890563;29;8884;-81
2023/06/26 03:09:17;;;;;;;;;26.80;25.20;;;;;19.30;69.55;99210.59;4906137;29;8853;-82
2023/06/26 03:11:46;;;;;;;;;24.80;23.80;;;;;19.33;69.84;99205.94;4903538;29;8891;-79
2023/06/26 03:14:15;;;;;;;;;28.00;27.00;;;;;19.25;68.56;99204.69;4859187;29;9031;-82
2023/06/26 03:16:44;;;;;;;;;25.20;24.20;;;;;19.32;69.41;99212.19;4890543;29;8995;-80
2023/06/26 03:19:13;;;;;;;;;23.20;23.00;;;;;19.30;69.40;99205.25;4890694;29;8908;-81
2023/06/26 03:22:07;;;;;;;;;34.60;31.80;;;;;19.40;69.26;99202.88;4891253;29;8873;-80
2023/06/26 03:24:36;;;;;;;;;53.25;44.25;;;;;19.43;69.44;99208.88;4890864;29;9597;-81
2023/06/26 03:27:05;;;;;;;;;29.00;28.40;;;;;19.51;69.12;99203.03;4885997;29;9039;-79
2023/06/26 03:29:35;;;;;;;;;32.40;29.60;;;;;19.47;69.01;99204.19;4904553;29;8875;-81
2023/06/26 03:32:04;;;;;;;;;32.20;28.80;;;;;19.48;69.22;99214.78;4914643;29;8883;-81
2023/06/26 03:34:33;;;;;;;;;26.00;26.00;;;;;19.54;69.53;99215.34;4878019;29;9017;-80
2023/06/26 03:37:03;;;;;;;;;44.50;38.25;;;;;19.58;69.42;99216.88;4894438;29;9666;-81
2023/06/26 03:39:34;;;;;;;;;29.00;28.60;;;;;19.60;69.66;99210.50;4894086;29;8939;-79
2023/06/26 03:42:04;;;;;;;;;27.40;24.40;;;;;19.67;69.75;99213.66;4848148;29;8894;-81
2023/06/26 03:44:33;;;;;;;;;25.00;24.60;;;;;19.69;69.15;99215.25;4878656;29;8883;-81
2023/06/26 03:47:02;;;;;;;;;22.00;20.60;;;;;19.67;68.39;99213.66;4862938;29;8886;-81
2023/06/26 03:49:31;;;;;;;;;23.00;22.00;;;;;19.73;68.87;99212.41;4892814;29;8901;-81
2023/06/26 03:52:00;;;;;;;;;25.80;25.20;;;;;19.81;69.50;99218.06;4894068;29;8912;-81
2023/06/26 03:54:30;;;;;;;;;22.40;22.00;;;;;19.87;68.92;99218.50;4878700;29;9680;-81
2023/06/26 03:57:00;;;;;;;;;23.40;21.20;;;;;19.93;68.98;99219.94;4893881;29;8891;-82
2023/06/26 03:59:29;;;;;;;;;30.00;29.40;;;;;19.99;68.81;99218.69;4907232;29;8892;-81
2023/06/26 04:01:58;;;;;;;;;50.25;42.00;;;;;20.00;68.56;99215.91;4911989;29;9794;-81
2023/06/26 04:04:27;;;;;;;;;27.60;26.40;;;;;20.03;68.40;99221.06;4943110;28;8875;-81
2023/06/26 04:06:57;;;;;;;;;26.20;24.20;;;;;19.96;67.20;99217.06;4947152;29;8957;-81
2023/06/26 04:09:26;;;;;;;;;25.60;24.20;;;;;19.92;67.14;99228.91;4899780;29;8869;-80
2023/06/26 04:11:55;;;;;;;;;20.00;20.00;;;;;19.94;68.26;99221.66;4931882;29;8862;-81
2023/06/26 04:14:25;;;;;;;;;27.80;24.00;;;;;19.91;66.76;99224.50;4931708;29;8893;-81
2023/06/26 04:16:54;;;;;;;;;26.80;26.00;;;;;19.87;68.13;99226.53;4931692;29;9010;-79
2023/06/26 04:19:23;;;;;;;;;26.60;24.20;;;;;19.89;67.46;99223.75;4950259;28;8890;-79
2023/06/26 04:21:51;;;;;;;;;28.60;27.60;;;;;20.03;67.69;99230.88;4922011;28;9660;-81
2023/06/26 04:24:20;;;;;;;;;26.80;24.40;;;;;20.08;67.90;99223.41;4957033;28;8890;-84
2023/06/26 04:26:49;;;;;;;;;30.40;29.40;;;;;20.05;66.11;99226.31;4950918;28;8863;-81
2023/06/26 04:29:18;;;;;;;;;48.50;40.75;;;;;20.13;67.79;99226.63;4918169;28;8859;-82
2023/06/26 04:31:49;;;;;;;;;25.20;20.60;;;;;20.21;67.25;99229.66;4950310;28;9641;-80
2023/06/26 04:34:18;;;;;;;;;64.50;51.50;;;;;20.36;67.68;99237.63;4934284;28;9050;-82
2023/06/26 04:36:47;;;;;;;;;35.00;33.00;;;;;20.15;65.23;99226.53;4897336;29;8874;-81
2023/06/26 04:39:16;;;;;;;;;30.20;28.60;;;;;20.13;67.34;99231.13;4929139;29;8903;-83
2023/06/26 04:41:45;;;;;;;;;22.80;22.00;;;;;20.21;66.86;99226.97;4929034;29;8863;-82
2023/06/26 04:44:14;;;;;;;;;24.00;23.40;;;;;20.24;66.60;99233.97;4914879;29;9041;-82
2023/06/26 04:46:43;;;;;;;;;27.60;25.00;;;;;20.23;66.84;99233.09;4912959;29;8883;-83
2023/06/26 04:49:17;;;;;;;;;28.80;28.00;;;;;20.21;66.35;99232.31;4929056;29;8848;-80
2023/06/26 04:51:46;;;;;;;;;28.60;24.20;;;;;20.09;65.32;99233.16;4913568;29;8885;-83
2023/06/26 04:54:15;;;;;;;;;23.60;22.20;;;;;20.04;66.31;99228.09;4927937;29;9617;-79
2023/06/26 04:56:47;;;;;;;;;27.20;25.40;;;;;20.35;67.02;99236.78;4913075;29;8883;-83
2023/06/26 04:59:16;;;;;;;;;22.60;22.60;;;;;20.65;68.07;99235.66;4928359;29;8871;-81
2023/06/26 05:01:47;;;;;;;;;24.00;23.60;;;;;20.84;67.16;99237.94;4913886;29;8843;-81
2023/06/26 05:04:18;;;;;;;;;28.80;25.20;;;;;21.03;67.53;99238.44;4914044;29;9617;-82
2023/06/26 05:06:47;;;;;;;;;24.60;24.20;;;;;21.17;66.04;99244.63;4913134;29;8872;-79
2023/06/26 05:09:16;;;;;;;;;29.60;29.40;;;;;21.10;65.56;99248.69;4911258;29;9724;-81
2023/06/26 05:11:45;;;;;;;;;28.20;26.20;;;;;21.37;66.12;99244.06;4895749;29;9634;-80
2023/06/26 05:14:14;;;;;;;;;29.00;28.20;;;;;21.25;64.08;99247.59;4915894;29;8883;-82
2023/06/26 05:16:45;;;;;;;;;27.40;25.60;;;;;21.05;62.62;99252.53;4907689;29;8871;-82
2023/06/26 05:19:14;;;;;;;;;27.60;27.40;;;;;20.54;63.80;99256.91;4936008;29;8871;-81
2023/06/26 05:21:45;;;;;;;;;31.60;28.00;;;;;20.88;65.43;99253.66;4929356;29;8957;-83
2023/06/26 05:24:16;;;;;;;;;25.80;24.20;;;;;21.10;64.87;99259.38;4912117;29;8875;-80
2023/06/26 05:26:45;;;;;;;;;27.20;25.40;;;;;21.32;65.13;99256.91;4926787;29;8977;-81
2023/06/26 05:29:15;;;;;;;;;25.80;25.00;;;;;21.03;63.14;99262.47;4912715;29;8886;-81
2023/06/26 05:31:46;;;;;;;;;26.00;25.60;;;;;21.00;63.77;99262.69;4927991;29;8910;-80
2023/06/26 05:34:18;;;;;;;;;26.60;25.80;;;;;21.09;64.16;99260.31;4912039;29;8867;-79
2023/06/26 05:36:52;;;;;;;;;30.20;27.20;;;;;21.45;65.21;99257.75;4911922;29;8871;-79
2023/06/26 05:39:21;;;;;;;;;28.40;27.40;;;;;21.45;65.00;99260.41;4912316;29;8934;-80
2023/06/26 05:41:50;;;;;;;;;28.80;27.20;;;;;21.66;64.36;99257.22;4911357;29;8863;-80
2023/06/26 05:44:21;;;;;;;;;32.20;30.40;;;;;21.30;62.42;99258.84;4927672;29;8883;-75
2023/06/26 05:46:49;;;;;;;;;33.20;28.80;;;;;21.43;63.56;99259.69;4913717;29;8875;-76
2023/06/26 05:49:18;;;;;;;;;25.20;24.80;;;;;21.45;62.04;99263.09;4880766;29;9041;-78
2023/06/26 05:51:49;;;;;;;;;29.00;29.00;;;;;21.52;61.07;99263.53;4926327;29;8847;-76
2023/06/26 05:54:19;;;;;;;;;30.20;29.20;;;;;21.44;61.90;99258.69;4912637;29;8875;-76
2023/06/26 05:56:49;;;;;;;;;27.60;27.00;;;;;21.32;62.12;99262.25;4911521;29;8864;-76
2023/06/26 05:59:19;;;;;;;;;32.00;30.40;;;;;21.71;61.69;99265.78;4927200;29;8894;-77
2023/06/26 06:01:48;;;;;;;;;27.80;27.80;;;;;22.03;62.28;99267.91;4910999;29;9014;-76
2023/06/26 06:04:17;;;;;;;;;31.80;28.20;;;;;21.93;60.84;99264.19;4911161;29;8883;-79
2023/06/26 06:06:45;;;;;;;;;27.00;25.40;;;;;21.66;59.48;99264.38;4909230;29;8879;-78
2023/06/26 06:09:16;;;;;;;;;26.00;22.80;;;;;20.88;58.76;99272.38;4927988;29;8871;-76
2023/06/26 06:11:45;;;;;;;;;25.00;24.00;;;;;20.67;59.52;99269.34;4918682;29;8867;-77
2023/06/26 06:14:14;;;;;;;;;25.60;25.00;;;;;20.92;59.21;99262.34;4915400;29;8887;-76
2023/06/26 06:16:43;;;;;;;;;25.80;25.40;;;;;21.01;58.73;99264.41;4911868;29;8907;-78
2023/06/26 06:19:13;;;;;;;;;31.60;27.00;;;;;20.64;59.85;99269.53;4913245;29;8878;-75
2023/06/26 06:21:42;;;;;;;;;28.20;24.80;;;;;20.85;60.87;99258.34;4912104;29;8875;-75
2023/06/26 06:24:12;;;;;;;;;25.60;21.40;;;;;21.11;60.21;99261.94;4912678;29;8953;-76
2023/06/26 06:26:42;;;;;;;;;30.40;28.80;;;;;21.00;60.05;99254.66;4912944;29;8867;-79
2023/06/26 06:29:11;;;;;;;;;27.40;26.20;;;;;21.05;60.32;99257.88;4926203;29;8905;-78
2023/06/26 06:31:39;;;;;;;;;25.80;25.40;;;;;20.73;59.66;99261.84;4912489;29;8863;-77
2023/06/26 06:34:09;;;;;;;;;25.80;25.40;;;;;20.89;61.16;99257.19;4893978;29;8860;-76
2023/06/26 06:36:37;;;;;;;;;26.80;25.80;;;;;20.95;60.36;99256.78;4926593;29;8903;-76
2023/06/26 06:39:06;;;;;;;;;32.60;30.80;;;;;20.53;60.79;99266.72;4903833;29;8966;-76
2023/06/26 06:41:35;;;;;;;;;28.40;25.20;;;;;20.62;59.66;99263.44;4890533;29;9673;-76
2023/06/26 06:44:08;;;;;;;;;22.80;22.40;;;;;21.02;59.29;99259.91;4890256;29;8994;-73
2023/06/26 06:46:37;;;;;;;;;25.40;24.20;;;;;20.49;59.98;99259.88;4890554;29;8906;-80
2023/06/26 06:49:06;;;;;;;;;27.20;24.00;;;;;20.84;60.35;99261.97;4892387;29;8909;-79
2023/06/26 06:51:35;;;;;;;;;25.40;24.00;;;;;20.60;60.01;99262.69;4866428;29;8983;-80
2023/06/26 06:54:04;;;;;;;;;29.40;26.40;;;;;20.37;59.74;99258.91;4891700;29;8907;-81
2023/06/26 06:56:33;;;;;;;;;21.60;21.60;;;;;21.02;60.59;99258.06;4890850;29;8986;-80
2023/06/26 06:59:02;;;;;;;;;28.60;25.60;;;;;21.47;58.63;99249.63;4891658;29;9006;-76
2023/06/26 07:01:33;;;;;;;;;22.80;22.20;;;;;21.15;58.04;99252.75;4891622;29;8899;-78
2023/06/26 07:04:03;;;;;;;;;25.20;24.00;;;;;20.83;58.87;99260.28;4895342;29;8903;-79
2023/06/26 07:06:33;;;;;;;;;26.00;25.40;;;;;21.27;58.20;99251.03;4883942;29;9122;-80
2023/06/26 07:09:02;;;;;;;;;23.80;23.80;;;;;21.23;56.82;99257.56;4881256;29;8883;-77
2023/06/26 07:11:31;;;;;;;;;23.00;22.80;;;;;20.81;58.10;99254.19;4916123;29;9621;-78
2023/06/26 07:14:00;;;;;;;;;24.00;21.00;;;;;21.07;58.09;99249.75;4914126;29;8893;-78
2023/06/26 07:16:29;;;;;;;;;23.40;22.20;;;;;21.59;57.64;99261.25;4915487;29;9021;-77
2023/06/26 07:18:59;;;;;;;;;23.80;23.60;;;;;21.07;55.65;99252.44;4915715;29;8871;-77
2023/06/26 07:21:28;;;;;;;;;25.40;24.40;;;;;21.41;55.65;99250.06;4915982;29;8883;-77
2023/06/26 07:23:57;;;;;;;;;21.40;21.40;;;;;21.25;54.97;99255.63;4915165;29;8954;-77
2023/06/26 07:26:26;;;;;;;;;23.00;23.00;;;;;21.63;58.61;99246.72;4914308;29;8875;-76
2023/06/26 07:29:12;;;;;;;;;23.60;23.00;;;;;21.85;56.21;99246.03;4929917;29;8887;-78
2023/06/26 07:31:41;;;;;;;;;23.20;22.40;;;;;21.54;55.81;99252.69;4915963;29;8879;-78
2023/06/26 07:34:11;;;;;;;;;22.80;22.00;;;;;21.19;56.66;99254.22;4921971;29;8875;-79
2023/06/26 07:36:40;;;;;;;;;25.00;23.80;;;;;21.42;56.94;99243.72;4915967;29;8873;-76
2023/06/26 07:39:09;;;;;;;;;24.00;23.40;;;;;22.05;58.06;99252.59;4915489;29;8887;-76
2023/06/26 07:41:43;;;;;;;;;26.60;25.00;;;;;22.00;55.29;99249.41;4897409;29;8855;-78
2023/06/26 07:44:12;;;;;;;;;28.20;25.20;;;;;22.14;55.32;99254.59;4915578;29;9017;-78
2023/06/26 07:46:41;;;;;;;;;18.40;18.00;;;;;22.47;55.22;99254.88;4915730;29;8871;-77
2023/06/26 07:49:11;;;;;;;;;25.60;24.80;;;;;22.00;54.50;99255.63;4914712;29;8886;-77
2023/06/26 07:51:40;;;;;;;;;30.40;27.40;;;;;21.93;54.78;99256.19;4896739;29;8863;-79
2023/06/26 07:54:08;;;;;;;;;27.60;23.40;;;;;22.35;54.53;99251.31;4929616;29;8891;-76
2023/06/26 07:56:55;;;;;;;;;21.20;21.20;;;;;22.58;51.57;99253.13;4914964;29;8872;-78
2023/06/26 07:59:25;;;;;;;;;27.20;24.80;;;;;22.57;52.08;99247.88;4918454;29;8875;-78
2023/06/26 08:01:55;;;;;;;;;20.20;19.60;;;;;23.06;52.23;99251.34;4939776;29;8887;-76
2023/06/26 08:04:27;;;;;;;;;26.00;25.20;;;;;22.85;47.12;99260.03;4931524;29;8891;-76
2023/06/26 08:06:58;;;;;;;;;16.40;16.40;;;;;22.34;47.85;99263.00;4930410;29;9711;-77
2023/06/26 08:09:28;;;;;;;;;20.20;18.40;;;;;22.02;47.60;99251.00;4912356;29;8867;-78
2023/06/26 08:11:57;;;;;;;;;21.80;20.00;;;;;22.04;47.65;99254.41;4913854;29;8851;-76
2023/06/26 08:14:26;;;;;;;;;19.80;18.80;;;;;22.31;47.94;99255.19;4912353;29;9736;-78
2023/06/26 08:16:56;;;;;;;;;20.80;20.00;;;;;22.64;47.52;99246.44;4929292;29;8859;-79
2023/06/26 08:19:26;;;;;;;;;18.60;18.40;;;;;22.86;46.19;99237.59;4928075;29;8997;-78
2023/06/26 08:21:55;;;;;;;;;15.00;15.00;;;;;22.97;42.93;99277.00;4910224;29;8890;-79
2023/06/26 08:24:24;;;;;;;;;18.00;18.00;;;;;22.74;44.52;99254.63;4913821;29;8894;-78
2023/06/26 08:26:53;;;;;;;;;21.20;20.40;;;;;23.08;43.26;99260.94;4914969;29;8901;-78
2023/06/26 08:29:21;;;;;;;;;19.80;17.60;;;;;22.96;42.49;99259.25;4915330;29;8887;-80
2023/06/26 08:31:50;;;;;;;;;16.40;16.00;;;;;23.12;42.86;99254.38;4929031;29;8882;-79
2023/06/26 08:34:19;;;;;;;;;18.40;17.80;;;;;23.70;41.79;99256.13;4914831;29;8887;-78
2023/06/26 08:36:49;;;;;;;;;13.20;12.60;;;;;22.82;42.92;99249.53;4914119;29;8942;-79
2023/06/26 08:39:18;;;;;;;;;15.40;15.40;;;;;23.23;42.56;99255.38;4914696;29;8948;-78
2023/06/26 08:41:47;;;;;;;;;19.20;19.20;;;;;23.26;42.74;99257.78;4915386;29;8931;-79
2023/06/26 08:44:16;;;;;;;;;24.00;21.00;;;;;22.88;43.16;99258.94;4916848;29;8929;-82
2023/06/26 08:46:46;;;;;;;;;17.40;17.00;;;;;23.48;43.92;99248.91;4914469;29;9614;-78
2023/06/26 08:49:21;;;;;;;;;16.80;15.60;;;;;23.72;41.69;99246.97;4929917;29;8898;-80
2023/06/26 08:51:57;;;;;;;;;17.60;13.40;;;;;24.23;38.62;99245.53;4930159;29;8885;-82
2023/06/26 08:54:33;;;;;;;;;15.60;15.60;;;;;24.37;35.61;99251.59;4923779;29;8875;-78
2023/06/26 08:57:02;;;;;;;;;14.40;13.80;;;;;24.35;37.37;99241.81;4921932;29;8871;-76
2023/06/26 08:59:32;;;;;;;;;13.40;13.00;;;;;24.84;37.78;99246.75;4918537;29;8902;-78
2023/06/26 09:02:02;;;;;;;;;16.40;14.40;;;;;25.11;37.42;99246.22;4886078;29;8965;-79
2023/06/26 09:04:31;;;;;;;;;14.20;14.20;;;;;25.26;37.80;99241.34;4916492;29;8864;-78
2023/06/26 09:07:02;;;;;;;;;12.20;12.20;;;;;25.24;36.20;99249.53;4917006;29;8903;-80
2023/06/26 09:09:31;;;;;;;;;11.80;11.80;;;;;24.79;36.29;99249.81;4916725;29;8929;-78
2023/06/26 09:12:02;;;;;;;;;10.20;10.20;;;;;25.30;35.47;99245.44;4929253;29;8894;-78
2023/06/26 09:14:31;;;;;;;;;9.40;9.40;;;;;24.32;37.20;99244.78;4915479;29;8883;-79
2023/06/26 09:17:00;;;;;;;;;14.20;13.00;;;;;25.11;38.10;99241.69;4928457;29;8962;-79
2023/06/26 09:19:29;;;;;;;;;14.60;13.60;;;;;24.89;36.02;99247.22;4929779;29;8883;-79
2023/06/26 09:21:58;;;;;;;;;12.00;11.20;;;;;25.27;36.37;99243.88;4939866;29;8899;-77
2023/06/26 09:24:28;;;;;;;;;12.40;12.00;;;;;25.06;35.33;99233.16;4931041;29;8902;-82
2023/06/26 09:26:58;;;;;;;;;11.40;11.00;;;;;25.65;36.02;99239.69;4916879;29;8887;-78
2023/06/26 09:29:28;;;;;;;;;14.80;14.60;;;;;25.87;35.71;99235.06;4917656;29;8875;-78
2023/06/26 09:31:58;;;;;;;;;13.40;13.40;;;;;25.75;36.01;99249.63;4930467;29;8909;-82
2023/06/26 09:34:32;;;;;;;;;12.40;12.40;;;;;24.65;36.79;99252.81;4912958;29;8974;-78
2023/06/26 09:37:02;;;;;;;;;13.60;13.60;;;;;24.63;37.68;99252.09;4912107;29;8875;-79
2023/06/26 09:39:32;;;;;;;;;14.20;13.20;;;;;25.07;38.12;99244.78;4927686;29;8872;-78
2023/06/26 09:42:02;;;;;;;;;10.60;10.00;;;;;25.40;36.12;99243.72;4904508;29;8965;-80
2023/06/26 09:44:35;;;;;;;;;11.40;11.40;;;;;25.38;34.52;99252.88;4918915;29;8899;-78
2023/06/26 09:47:04;;;;;;;;;11.20;10.20;;;;;24.29;36.16;99252.25;4918827;29;8880;-81
2023/06/26 09:49:33;;;;;;;;;11.40;11.40;;;;;24.45;36.14;99255.38;4933646;29;8883;-78
2023/06/26 09:52:03;;;;;;;;;11.40;11.40;;;;;24.37;36.11;99246.22;4923752;29;8883;-80
2023/06/26 09:54:35;;;;;;;;;13.00;13.00;;;;;23.71;37.54;99253.31;4917980;29;8887;-78
2023/06/26 09:57:12;;;;;;;;;13.00;12.60;;;;;23.41;37.77;99245.00;4913094;29;8883;-75
2023/06/26 09:59:41;;;;;;;;;11.40;11.40;;;;;23.77;37.15;99236.72;4924829;29;8864;-76
2023/06/26 10:02:11;;;;;;;;;14.80;14.00;;;;;24.01;36.80;99248.25;4929383;29;9637;-77
2023/06/26 10:04:40;;;;;;;;;13.80;13.00;;;;;24.21;36.48;99250.19;4913871;29;8875;-76
2023/06/26 10:07:12;;;;;;;;;12.00;12.00;;;;;23.94;37.07;99238.03;4913771;29;8887;-80
2023/06/26 10:09:44;;;;;;;;;13.40;12.80;;;;;24.18;36.04;99236.16;4913216;29;8914;-77
2023/06/26 10:12:20;;;;;;;;;14.80;13.00;;;;;24.31;35.53;99236.84;4899100;29;8871;-78
2023/06/26 10:14:50;;;;;;;;;9.40;9.40;;;;;24.43;34.64;99230.44;4898018;29;8978;-78
2023/06/26 10:17:21;;;;;;;;;15.40;14.00;;;;;23.95;35.20;99241.56;4912829;29;8899;-77
2023/06/26 10:19:51;;;;;;;;;14.00;14.00;;;;;24.32;34.69;99238.53;4913666;29;8867;-76
2023/06/26 10:22:21;;;;;;;;;12.00;12.00;;;;;24.80;33.87;99243.47;4913353;29;8867;-79
2023/06/26 10:24:53;;;;;;;;;13.00;13.00;;;;;25.19;32.98;99224.88;4927831;29;9038;-78
2023/06/26 10:27:24;;;;;;;;;11.80;11.00;;;;;25.55;33.89;99219.09;4911232;29;8879;-78
2023/06/26 10:29:56;;;;;;;;;14.60;13.80;;;;;25.08;32.21;99225.81;4914052;29;8944;-77
2023/06/26 10:32:27;;;;;;;;;12.00;12.00;;;;;24.86;33.11;99239.41;4913409;29;9006;-79
2023/06/26 10:34:57;;;;;;;;;13.00;12.40;;;;;25.22;34.22;99232.66;4912618;29;8919;-77
2023/06/26 10:37:44;;;;;;;;;13.40;12.60;;;;;25.25;31.97;99234.25;4927603;29;9657;-79
2023/06/26 10:40:21;;;;;;;;;12.40;12.20;;;;;25.10;32.67;99228.38;4912968;29;9030;-75
2023/06/26 10:42:50;;;;;;;;;15.80;13.40;;;;;25.04;32.98;99226.19;4915342;29;8852;-77
2023/06/26 10:45:22;;;;;;;;;13.60;12.40;;;;;25.71;33.99;99224.81;4919275;29;8891;-76
2023/06/26 10:47:54;;;;;;;;;13.80;12.80;;;;;26.12;32.53;99220.25;4917814;29;8875;-77
2023/06/26 10:50:25;;;;;;;;;12.60;12.60;;;;;26.46;31.57;99219.84;4912895;29;8982;-80
2023/06/26 10:53:10;;;;;;;;;12.00;11.20;;;;;25.37;30.85;99224.28;4926899;29;8875;-79
2023/06/26 10:55:43;;;;;;;;;14.20;13.00;;;;;25.53;31.65;99216.56;4878627;29;8879;-77
2023/06/26 10:58:30;;;;;;;;;12.20;12.00;;;;;25.94;31.84;99209.31;4926929;29;8892;-77
2023/06/26 11:01:22;;;;;;;;;12.20;11.60;;;;;26.39;32.69;99208.75;4911833;29;8911;-79
2023/06/26 11:04:05;;;;;;;;;16.00;13.40;;;;;26.36;31.71;99214.47;4926195;29;8867;-79
2023/06/26 11:06:38;;;;;;;;;13.20;13.20;;;;;26.58;32.52;99213.31;4912228;29;8883;-79
2023/06/26 11:09:12;;;;;;;;;14.00;13.80;;;;;26.81;30.39;99203.06;4915817;29;8930;-77
2023/06/26 11:12:01;;;;;;;;;12.20;12.20;;;;;26.97;31.61;99201.63;4915884;29;8876;-76
2023/06/26 11:14:32;;;;;;;;;10.60;10.60;;;;;27.28;32.23;99201.41;4927565;29;8879;-81
2023/06/26 11:17:04;;;;;;;;;13.40;11.20;;;;;26.83;30.40;99202.91;4911586;29;8895;-79
2023/06/26 11:19:33;;;;;;;;;14.20;12.80;;;;;26.57;31.26;99211.63;4926540;29;8863;-78
2023/06/26 11:22:06;;;;;;;;;12.80;12.80;;;;;26.94;30.51;99200.06;4912363;29;8887;-77
2023/06/26 11:24:35;;;;;;;;;12.00;12.00;;;;;27.18;31.07;99196.88;4926702;29;8863;-79
2023/06/26 11:27:06;;;;;;;;;14.20;14.20;;;;;27.08;31.54;99197.91;4912021;29;8902;-77
2023/06/26 11:29:36;;;;;;;;;14.00;14.00;;;;;27.67;31.71;99198.50;4926118;29;8856;-77
2023/06/26 11:32:07;;;;;;;;;9.40;8.60;;;;;27.75;28.65;99198.63;4926931;29;9695;-80
2023/06/26 11:34:37;;;;;;;;;12.60;12.00;;;;;27.95;29.36;99202.03;4911728;29;10044;-81
2023/06/26 11:37:07;;;;;;;;;12.40;12.20;;;;;28.19;30.69;99206.88;4912328;29;8887;-75
2023/06/26 11:39:38;;;;;;;;;13.60;13.20;;;;;28.59;29.80;99192.00;4933248;29;8942;-76